5D5 weather

Woolsey Memorial Airport
Northport, Michigan, United States

Public forecast

Using degrees Fahrenheit for public forecast. Weather courtesy of forecast.io.

METAR (pilot weather report)

Closest report is Charlevoix Municipal Airport, 15.1 nm (28.0 km) NE. Retrieved 2019/06/16 16:36 UTC (0 seconds ago):

KCVX 161636Z AUTO 12004KT 10SM CLR 17/10 A2997 RMK AO2 T01740100

TAF (pilot weather forecast)

Closest forecast is Cherry Capital Airport, 25.4 nm (47.1 km) S. Retrieved 2019/06/16 12:22 UTC (4 hours ago):

TAF KTVC 161120Z 1612/1712 VRB03KT P6SM SCT100 FM161500 04005KT P6SM BKN080 FM170000 VRB04KT P6SM SCT080 FM170800 00000KT P6SM BKN100